createdAt,value
2017-11-12T00:00:30.502Z,17.83
2017-11-12T00:02:58.821Z,21.47
2017-11-12T00:05:27.897Z,19.80
2017-11-12T00:07:56.212Z,26.70
2017-11-12T00:10:25.294Z,19.00
2017-11-12T00:12:53.601Z,23.47
2017-11-12T00:15:21.887Z,16.20
2017-11-12T00:17:50.967Z,19.50
2017-11-12T00:20:19.268Z,13.47
2017-11-12T00:22:47.590Z,14.70
2017-11-12T00:25:15.900Z,17.50
2017-11-12T00:27:44.226Z,18.13
2017-11-12T00:30:12.527Z,17.30
2017-11-12T00:32:41.603Z,13.77
2017-11-12T00:35:09.903Z,18.20
2017-11-12T00:37:38.978Z,15.47
2017-11-12T00:40:07.274Z,20.43
2017-11-12T00:42:36.353Z,23.30
2017-11-12T00:45:04.669Z,26.43
2017-11-12T00:47:32.972Z,28.50
2017-11-12T00:50:01.287Z,21.07
2017-11-12T00:52:29.612Z,22.20
2017-11-12T00:54:57.911Z,39.70
2017-11-12T00:57:26.229Z,29.93
2017-11-12T00:59:54.537Z,27.53
2017-11-12T01:02:22.860Z,26.53
2017-11-12T01:04:51.158Z,20.40
2017-11-12T01:07:19.474Z,36.37
2017-11-12T01:09:47.793Z,31.83
2017-11-12T01:12:16.107Z,27.90
2017-11-12T01:14:45.174Z,35.53
2017-11-12T01:17:13.494Z,35.80
2017-11-12T01:19:41.798Z,31.03
2017-11-12T01:22:10.143Z,30.03
2017-11-12T01:24:38.454Z,23.63
2017-11-12T01:27:06.768Z,35.43
2017-11-12T01:29:35.082Z,23.93
2017-11-12T01:32:03.383Z,20.40
2017-11-12T01:34:31.686Z,30.77
2017-11-12T01:36:59.983Z,22.40
2017-11-12T01:39:29.082Z,21.13
2017-11-12T01:41:58.146Z,23.07
2017-11-12T01:44:26.454Z,19.93
2017-11-12T01:46:55.538Z,20.63
2017-11-12T01:49:23.931Z,18.37
2017-11-12T01:51:53.008Z,19.53
2017-11-12T01:54:21.319Z,30.83
2017-11-12T01:56:49.617Z,19.07
2017-11-12T01:59:17.938Z,30.50
2017-11-12T02:01:46.251Z,20.90
2017-11-12T02:04:14.553Z,23.03
2017-11-12T02:06:42.842Z,24.83
2017-11-12T02:09:11.159Z,25.63
2017-11-12T02:11:40.227Z,28.77
2017-11-12T02:14:08.558Z,24.43
2017-11-12T02:16:36.867Z,17.37
2017-11-12T02:19:05.170Z,24.30
2017-11-12T02:21:33.485Z,20.93
2017-11-12T02:24:01.799Z,33.00
2017-11-12T02:26:30.752Z,27.90
2017-11-12T02:28:59.072Z,23.43
2017-11-12T02:31:28.447Z,23.13
2017-11-12T02:33:56.763Z,21.57
2017-11-12T02:36:25.826Z,17.60
2017-11-12T02:38:54.141Z,26.60
2017-11-12T02:41:22.460Z,29.37
2017-11-12T02:43:50.769Z,27.13
2017-11-12T02:46:19.076Z,26.50
2017-11-12T02:48:47.390Z,22.23
2017-11-12T02:51:15.700Z,21.60
2017-11-12T02:53:44.019Z,21.63
2017-11-12T02:56:12.318Z,19.27
2017-11-12T02:58:41.389Z,19.93
2017-11-12T03:01:09.710Z,19.97
2017-11-12T03:03:38.010Z,21.07
2017-11-12T03:06:06.347Z,20.20
2017-11-12T03:08:34.640Z,24.00
2017-11-12T03:11:02.962Z,18.43
2017-11-12T03:13:32.178Z,17.50
2017-11-12T03:16:00.507Z,17.63
2017-11-12T03:18:28.808Z,18.87
2017-11-12T03:20:57.153Z,17.57
2017-11-12T03:23:25.468Z,16.80
2017-11-12T03:25:53.782Z,13.80
2017-11-12T03:28:22.096Z,18.27
2017-11-12T03:30:50.403Z,11.77
2017-11-12T03:33:18.722Z,18.10
2017-11-12T03:35:47.036Z,10.97
2017-11-12T03:38:16.120Z,18.57
2017-11-12T03:40:44.419Z,12.70
2017-11-12T03:43:12.727Z,22.23
2017-11-12T03:45:41.089Z,11.70
2017-11-12T03:48:09.423Z,15.43
2017-11-12T03:50:37.786Z,14.07
2017-11-12T03:53:06.078Z,13.80
2017-11-12T03:55:34.402Z,16.53
2017-11-12T03:58:02.744Z,21.10
2017-11-12T04:00:31.101Z,20.00
2017-11-12T04:02:59.407Z,15.90
2017-11-12T04:05:27.729Z,13.17
2017-11-12T04:07:56.801Z,11.50
2017-11-12T04:10:25.126Z,17.87
2017-11-12T04:12:53.428Z,16.63
2017-11-12T04:15:21.771Z,23.20
2017-11-12T04:17:50.089Z,23.43
2017-11-12T04:20:18.418Z,15.53
2017-11-12T04:22:47.522Z,16.80
2017-11-12T04:25:15.834Z,15.77
2017-11-12T04:27:44.143Z,14.47
2017-11-12T04:30:12.464Z,15.97
2017-11-12T04:32:40.769Z,17.67
2017-11-12T04:35:09.096Z,13.93
2017-11-12T04:37:38.176Z,13.80
2017-11-12T04:40:07.279Z,11.10
2017-11-12T04:42:35.602Z,15.07
2017-11-12T04:45:03.911Z,12.53
2017-11-12T04:47:32.235Z,13.60
2017-11-12T04:50:00.546Z,7.90
2017-11-12T04:52:29.625Z,12.00
2017-11-12T04:54:57.940Z,8.67
2017-11-12T04:57:26.247Z,11.93
2017-11-12T04:59:55.341Z,14.93
2017-11-12T05:02:24.428Z,12.17
2017-11-12T05:04:52.742Z,9.33
2017-11-12T05:07:21.052Z,12.33
2017-11-12T05:09:49.385Z,7.87
2017-11-12T05:12:17.687Z,9.10
2017-11-12T05:14:46.018Z,9.00
2017-11-12T05:17:14.318Z,8.30
2017-11-12T05:19:42.635Z,14.10
2017-11-12T05:22:10.948Z,13.60
2017-11-12T05:24:40.028Z,6.90
2017-11-12T05:27:08.355Z,13.40
2017-11-12T05:29:36.662Z,7.67
2017-11-12T05:32:04.991Z,11.37
2017-11-12T05:34:33.317Z,5.93
2017-11-12T05:37:01.643Z,9.90
2017-11-12T05:39:30.719Z,7.90
2017-11-12T05:41:59.040Z,10.27
2017-11-12T05:44:27.352Z,9.10
2017-11-12T05:46:55.675Z,13.57
2017-11-12T05:49:23.983Z,6.23
2017-11-12T05:51:52.323Z,7.23
2017-11-12T05:54:21.394Z,5.60
2017-11-12T05:56:49.700Z,5.20
2017-11-12T05:59:18.765Z,8.10
2017-11-12T06:01:47.079Z,9.33
2017-11-12T06:04:15.389Z,3.67
2017-11-12T06:06:43.714Z,7.20
2017-11-12T06:09:12.789Z,8.77
2017-11-12T06:11:41.119Z,6.90
2017-11-12T06:14:09.411Z,8.37
2017-11-12T06:16:37.731Z,9.93
2017-11-12T06:19:06.031Z,6.37
2017-11-12T06:21:34.374Z,3.77
2017-11-12T06:24:02.687Z,14.57
2017-11-12T06:26:30.998Z,3.37
2017-11-12T06:28:59.307Z,6.17
2017-11-12T06:31:27.603Z,8.03
2017-11-12T06:33:56.676Z,10.20
2017-11-12T06:36:24.971Z,10.03
2017-11-12T06:38:53.292Z,13.50
2017-11-12T06:41:21.592Z,4.20
2017-11-12T06:43:49.906Z,5.60
2017-11-12T06:46:18.979Z,4.83
2017-11-12T06:48:47.291Z,8.50
2017-11-12T06:51:16.368Z,5.33
2017-11-12T06:53:45.459Z,5.57
2017-11-12T06:56:13.761Z,3.80
2017-11-12T06:58:42.067Z,9.63
2017-11-12T07:01:10.445Z,6.40
2017-11-12T07:03:38.753Z,4.00
2017-11-12T07:06:07.058Z,8.60
2017-11-12T07:08:36.154Z,3.73
2017-11-12T07:11:05.222Z,10.60
2017-11-12T07:13:33.533Z,4.33
2017-11-12T07:16:02.613Z,11.70
2017-11-12T07:18:31.698Z,6.27
2017-11-12T07:20:59.998Z,6.20
2017-11-12T07:23:29.072Z,6.00
2017-11-12T07:25:57.394Z,4.70
2017-11-12T07:28:25.709Z,2.70
2017-11-12T07:30:54.015Z,4.10
2017-11-12T07:33:22.324Z,3.60
2017-11-12T07:35:50.623Z,5.60
2017-11-12T07:38:18.926Z,5.70
2017-11-12T07:40:47.222Z,4.80
2017-11-12T07:43:16.291Z,3.00
2017-11-12T07:45:44.591Z,6.40
2017-11-12T07:48:12.897Z,4.90
2017-11-12T07:50:41.205Z,5.90
2017-11-12T07:53:09.549Z,6.10
2017-11-12T07:55:37.869Z,6.90
2017-11-12T07:58:06.164Z,6.10
2017-11-12T08:00:34.466Z,9.30
2017-11-12T08:03:03.550Z,7.40
2017-11-12T08:05:32.614Z,9.50
2017-11-12T08:08:00.918Z,3.60
2017-11-12T08:10:29.238Z,6.70
2017-11-12T08:12:57.543Z,6.87
2017-11-12T08:15:25.891Z,7.53
2017-11-12T08:17:54.179Z,8.03
2017-11-12T08:20:22.479Z,6.60
2017-11-12T08:22:50.835Z,3.80
2017-11-12T08:25:19.153Z,5.57
2017-11-12T08:27:47.450Z,5.60
2017-11-12T08:30:16.523Z,4.70
2017-11-12T08:32:44.818Z,9.70
2017-11-12T08:35:13.888Z,5.77
2017-11-12T08:37:42.187Z,7.07
2017-11-12T08:40:11.270Z,6.67
2017-11-12T08:42:39.582Z,5.47
2017-11-12T08:45:07.897Z,7.30
2017-11-12T08:47:36.204Z,6.13
2017-11-12T08:50:05.283Z,8.20
2017-11-12T08:52:33.585Z,6.90
2017-11-12T08:55:02.676Z,10.07
2017-11-12T08:57:30.989Z,7.20
2017-11-12T08:59:59.311Z,10.20
2017-11-12T09:02:27.611Z,6.60
2017-11-12T09:04:56.704Z,11.90
2017-11-12T09:07:25.004Z,5.30
2017-11-12T09:09:53.320Z,3.50
2017-11-12T09:12:21.607Z,5.03
2017-11-12T09:14:50.689Z,7.87
2017-11-12T09:17:18.997Z,7.63
2017-11-12T09:19:47.311Z,8.50
2017-11-12T09:22:15.619Z,8.60
2017-11-12T09:24:43.928Z,9.20
2017-11-12T09:27:12.246Z,4.80
2017-11-12T09:29:40.583Z,7.50
2017-11-12T09:32:08.874Z,9.57
2017-11-12T09:34:37.167Z,5.73
2017-11-12T09:37:06.259Z,10.17
2017-11-12T09:39:35.328Z,5.67
2017-11-12T09:42:03.632Z,6.27
2017-11-12T09:44:32.699Z,7.20
2017-11-12T09:47:01.005Z,11.77
2017-11-12T09:49:30.084Z,7.53
2017-11-12T09:51:58.420Z,7.70
2017-11-12T09:54:26.723Z,12.17
2017-11-12T09:56:55.045Z,10.03
2017-11-12T09:59:23.374Z,6.97
2017-11-12T10:01:51.683Z,7.63
2017-11-12T10:04:20.752Z,8.13
2017-11-12T10:06:49.069Z,10.70
2017-11-12T10:09:17.377Z,14.07
2017-11-12T10:11:45.690Z,10.60
2017-11-12T10:14:14.782Z,8.97
2017-11-12T10:16:43.098Z,7.70
2017-11-12T10:19:11.393Z,14.67
2017-11-12T10:21:39.695Z,7.17
2017-11-12T10:24:08.012Z,8.00
2017-11-12T10:26:37.084Z,9.23
2017-11-12T10:29:05.387Z,10.20
2017-11-12T10:31:34.462Z,12.73
2017-11-12T10:34:02.760Z,10.93
2017-11-12T10:36:31.831Z,7.20
2017-11-12T10:39:00.132Z,7.37
2017-11-12T10:41:29.198Z,10.60
2017-11-12T10:43:57.499Z,10.83
2017-11-12T10:46:26.568Z,7.50
2017-11-12T10:48:54.853Z,9.47
2017-11-12T10:51:23.155Z,7.70
2017-11-12T10:53:52.214Z,7.80
2017-11-12T10:56:20.526Z,7.10
2017-11-12T10:58:49.585Z,10.00
2017-11-12T11:01:17.899Z,10.83
2017-11-12T11:03:46.959Z,6.43
2017-11-12T11:06:15.293Z,15.13
2017-11-12T11:08:43.620Z,11.50
2017-11-12T11:11:11.947Z,9.20
2017-11-12T11:13:40.271Z,11.13
2017-11-12T11:16:08.588Z,9.07
2017-11-12T11:18:36.892Z,6.97
2017-11-12T11:21:05.222Z,10.47
2017-11-12T11:23:35.337Z,8.27
2017-11-12T11:26:03.688Z,9.20
2017-11-12T11:28:32.026Z,9.10
2017-11-12T11:31:00.338Z,6.70
2017-11-12T11:33:28.630Z,10.00
2017-11-12T11:35:56.954Z,12.97
2017-11-12T11:38:25.272Z,11.47
2017-11-12T11:40:53.613Z,12.40
2017-11-12T11:43:21.952Z,7.73
2017-11-12T11:45:50.259Z,8.87
2017-11-12T11:48:18.561Z,10.63
2017-11-12T11:50:46.881Z,12.07
2017-11-12T11:53:15.213Z,5.87
2017-11-12T11:55:43.511Z,9.93
2017-11-12T11:58:11.812Z,9.50
2017-11-12T12:00:40.176Z,8.30
2017-11-12T12:03:08.472Z,6.10
2017-11-12T12:05:36.770Z,7.30
2017-11-12T12:08:05.143Z,8.30
2017-11-12T12:10:34.287Z,6.63
2017-11-12T12:13:02.616Z,10.80
2017-11-12T12:15:31.679Z,7.43
2017-11-12T12:18:00.106Z,12.67
2017-11-12T12:20:28.432Z,12.33
2017-11-12T12:22:56.789Z,12.20
2017-11-12T12:25:25.128Z,6.47
2017-11-12T12:27:53.466Z,11.43
2017-11-12T12:30:21.782Z,11.10
2017-11-12T12:32:50.930Z,12.37
2017-11-12T12:35:19.239Z,14.33
2017-11-12T12:37:47.558Z,9.30
2017-11-12T12:40:15.885Z,14.27
2017-11-12T12:42:44.273Z,7.27
2017-11-12T12:45:13.386Z,13.50
2017-11-12T12:47:42.496Z,7.80
2017-11-12T12:50:10.838Z,9.63
2017-11-12T12:52:39.287Z,10.23
2017-11-12T12:55:07.621Z,13.93
2017-11-12T12:57:35.950Z,15.40
2017-11-12T13:00:04.271Z,16.13
2017-11-12T13:02:33.378Z,18.33
2017-11-12T13:05:01.684Z,7.00
2017-11-12T13:07:30.062Z,13.10
2017-11-12T13:09:58.376Z,14.20
2017-11-12T13:12:26.687Z,10.60
2017-11-12T13:14:55.746Z,12.03
2017-11-12T13:17:24.081Z,13.70
2017-11-12T13:19:52.380Z,7.73
2017-11-12T13:22:20.738Z,13.00
2017-11-12T13:24:49.044Z,14.47
2017-11-12T13:27:17.366Z,13.20
2017-11-12T13:29:46.461Z,11.23
2017-11-12T13:32:15.534Z,9.60
2017-11-12T13:34:43.827Z,16.83
2017-11-12T13:37:12.890Z,9.10
2017-11-12T13:39:41.201Z,10.27
2017-11-12T13:42:09.516Z,13.47
2017-11-12T13:44:37.816Z,19.23
2017-11-12T13:47:06.155Z,7.53
2017-11-12T13:49:34.477Z,11.10
2017-11-12T13:52:02.783Z,15.13
2017-11-12T13:54:31.853Z,10.00
2017-11-12T13:57:00.153Z,11.13
2017-11-12T13:59:29.267Z,11.60
2017-11-12T14:01:57.554Z,9.20
2017-11-12T14:04:25.863Z,14.70
2017-11-12T14:06:54.163Z,15.47
2017-11-12T14:09:22.493Z,13.47
2017-11-12T14:11:50.795Z,8.87
2017-11-12T14:14:19.146Z,15.63
2017-11-12T14:16:47.451Z,8.57
2017-11-12T14:19:15.785Z,13.80
2017-11-12T14:21:44.097Z,16.80
2017-11-12T14:24:13.176Z,14.93
2017-11-12T14:26:41.474Z,13.40
2017-11-12T14:29:09.797Z,13.20
2017-11-12T14:31:38.876Z,10.97
2017-11-12T14:34:07.981Z,11.83
2017-11-12T14:36:37.061Z,16.80
2017-11-12T14:39:05.379Z,13.17
2017-11-12T14:41:33.674Z,17.93
2017-11-12T14:44:02.045Z,15.30
2017-11-12T14:46:30.372Z,15.80
2017-11-12T14:48:58.767Z,17.17
2017-11-12T14:51:27.874Z,19.20
2017-11-12T14:53:56.261Z,14.87
2017-11-12T14:56:24.656Z,16.20
2017-11-12T14:58:52.991Z,14.03
2017-11-12T15:01:21.391Z,12.30
2017-11-12T15:03:49.749Z,17.20
2017-11-12T15:06:18.064Z,18.03
2017-11-12T15:08:46.428Z,14.63
2017-11-12T15:11:14.824Z,10.90
2017-11-12T15:13:43.233Z,13.70
2017-11-12T15:16:11.614Z,13.13
2017-11-12T15:18:39.987Z,12.93
2017-11-12T15:21:08.298Z,17.93
2017-11-12T15:23:37.624Z,11.37
2017-11-12T15:26:05.949Z,12.87
2017-11-12T15:28:34.265Z,22.83
2017-11-12T15:31:03.342Z,16.50
2017-11-12T15:33:31.654Z,11.87
2017-11-12T15:35:59.966Z,13.13
2017-11-12T15:38:28.274Z,15.03
2017-11-12T15:40:57.412Z,21.10
2017-11-12T15:43:25.720Z,14.60
2017-11-12T15:45:54.047Z,12.60
2017-11-12T15:48:23.125Z,15.37
2017-11-12T15:50:52.242Z,15.33
2017-11-12T15:53:21.308Z,18.40
2017-11-12T15:55:49.628Z,19.97
2017-11-12T15:58:17.944Z,18.17
2017-11-12T16:00:46.273Z,16.40
2017-11-12T16:03:14.579Z,17.70
2017-11-12T16:05:42.965Z,16.20
2017-11-12T16:08:11.277Z,16.93
2017-11-12T16:10:39.587Z,12.63
2017-11-12T16:13:07.901Z,21.30
2017-11-12T16:15:36.228Z,21.87
2017-11-12T16:18:05.299Z,17.07
2017-11-12T16:20:33.612Z,21.43
2017-11-12T16:23:01.918Z,15.43
2017-11-12T16:25:30.240Z,16.00
2017-11-12T16:27:58.551Z,21.37
2017-11-12T16:30:26.882Z,23.80
2017-11-12T16:32:55.205Z,25.60
2017-11-12T16:35:23.522Z,23.03
2017-11-12T16:37:51.833Z,20.77
2017-11-12T16:40:20.918Z,22.80
2017-11-12T16:42:49.227Z,17.80
2017-11-12T16:45:17.548Z,21.73
2017-11-12T16:47:45.861Z,24.63
2017-11-12T16:50:14.952Z,25.07
2017-11-12T16:52:44.034Z,32.47
2017-11-12T16:55:12.349Z,21.20
2017-11-12T16:57:40.670Z,22.20
2017-11-12T17:00:08.996Z,23.73
2017-11-12T17:02:37.308Z,21.57
2017-11-12T17:05:05.610Z,25.27
2017-11-12T17:07:33.927Z,29.47
2017-11-12T17:10:03.004Z,18.53
2017-11-12T17:12:31.390Z,20.23
2017-11-12T17:15:00.463Z,29.90
2017-11-12T17:17:28.835Z,24.30
2017-11-12T17:19:57.151Z,20.77
2017-11-12T17:22:26.226Z,21.17
2017-11-12T17:24:54.534Z,21.70
2017-11-12T17:27:22.860Z,47.30
2017-11-12T17:29:51.187Z,37.90
2017-11-12T17:32:19.533Z,22.50
2017-11-12T17:34:47.848Z,24.30
2017-11-12T17:37:16.169Z,22.10
2017-11-12T17:39:44.484Z,24.07
2017-11-12T17:42:13.569Z,18.40
2017-11-12T17:44:41.871Z,19.77
2017-11-12T17:47:10.178Z,19.23
2017-11-12T17:49:38.489Z,19.50
2017-11-12T17:52:06.811Z,18.37
2017-11-12T17:54:35.102Z,18.57
2017-11-12T17:57:03.430Z,20.87
2017-11-12T17:59:32.529Z,21.73
2017-11-12T18:02:01.627Z,23.77
2017-11-12T18:04:30.711Z,24.17
2017-11-12T18:06:59.032Z,102.80
2017-11-12T18:09:27.341Z,31.07
2017-11-12T18:11:55.712Z,23.57
2017-11-12T18:14:24.024Z,21.57
2017-11-12T18:16:52.358Z,25.60
2017-11-12T18:19:20.691Z,23.87
2017-11-12T18:21:49.027Z,22.93
2017-11-12T18:24:17.340Z,30.97
2017-11-12T18:26:46.427Z,24.53
2017-11-12T18:29:14.722Z,32.47
2017-11-12T18:31:43.811Z,33.50
2017-11-12T18:34:12.914Z,23.70
2017-11-12T18:36:41.997Z,26.17
2017-11-12T18:39:11.101Z,29.43
2017-11-12T18:41:40.168Z,31.50
2017-11-12T18:44:08.494Z,27.73
2017-11-12T18:46:36.805Z,35.73
2017-11-12T18:49:05.129Z,27.83
2017-11-12T18:51:34.216Z,28.20
2017-11-12T18:54:03.285Z,27.97
2017-11-12T18:56:41.486Z,28.00
2017-11-12T18:59:11.090Z,22.53
2017-11-12T19:01:49.282Z,13.70
2017-11-12T19:04:23.071Z,14.47
2017-11-12T19:06:56.737Z,10.43
2017-11-12T19:09:40.708Z,9.10
2017-11-12T19:12:09.349Z,9.33
2017-11-12T19:14:37.664Z,9.57
2017-11-12T19:17:09.070Z,8.00
2017-11-12T19:19:47.612Z,9.27
2017-11-12T19:22:17.062Z,8.27
2017-11-12T19:25:01.022Z,10.60
2017-11-12T19:27:30.225Z,10.20
2017-11-12T19:29:59.638Z,8.90
2017-11-12T19:32:27.951Z,10.57
2017-11-12T19:34:57.034Z,10.90
2017-11-12T19:37:26.126Z,12.83
2017-11-12T19:39:54.447Z,10.77
2017-11-12T19:42:22.773Z,12.07
2017-11-12T19:44:51.896Z,12.20
2017-11-12T19:47:21.103Z,12.87
2017-11-12T19:49:49.443Z,14.87
2017-11-12T19:52:17.768Z,11.70
2017-11-12T19:54:46.105Z,15.40
2017-11-12T19:57:14.421Z,14.37
2017-11-12T19:59:42.743Z,13.97
2017-11-12T20:02:11.044Z,14.00
2017-11-12T20:04:39.360Z,14.60
2017-11-12T20:07:08.148Z,14.20
2017-11-12T20:09:36.458Z,13.20
2017-11-12T20:12:04.783Z,13.80
2017-11-12T20:14:33.138Z,16.00
2017-11-12T20:17:02.240Z,15.90
2017-11-12T20:19:30.570Z,13.40
2017-11-12T20:21:58.884Z,16.20
2017-11-12T20:24:27.207Z,17.23
2017-11-12T20:26:55.507Z,15.23
2017-11-12T20:29:23.819Z,15.83
2017-11-12T20:31:52.899Z,19.30
2017-11-12T20:34:21.984Z,15.13
2017-11-12T20:36:50.292Z,17.30
2017-11-12T20:39:19.380Z,21.03
2017-11-12T20:41:47.683Z,13.87
2017-11-12T20:44:16.756Z,14.20
2017-11-12T20:46:45.078Z,14.00
2017-11-12T20:49:13.392Z,12.00
2017-11-12T20:51:41.705Z,14.43
2017-11-12T20:54:10.792Z,10.07
2017-11-12T20:56:39.858Z,10.87
2017-11-12T20:59:08.167Z,9.83
2017-11-12T21:01:37.245Z,9.93
2017-11-12T21:04:06.334Z,14.13
2017-11-12T21:06:34.670Z,13.07
2017-11-12T21:09:02.980Z,9.47
2017-11-12T21:11:31.274Z,8.13
2017-11-12T21:13:59.586Z,11.00
2017-11-12T21:16:27.886Z,7.57
2017-11-12T21:18:56.194Z,10.67
2017-11-12T21:24:36.215Z,8.23
2017-11-12T21:27:09.973Z,6.63
2017-11-12T21:29:38.307Z,9.10
2017-11-12T21:32:07.882Z,6.97
2017-11-12T21:34:54.484Z,7.33
2017-11-12T21:37:29.022Z,8.23
2017-11-12T21:39:58.085Z,6.10
2017-11-12T21:42:26.384Z,6.50
2017-11-12T21:44:55.479Z,5.87
2017-11-12T21:47:24.570Z,7.60
2017-11-12T21:49:52.881Z,7.60
2017-11-12T21:52:21.182Z,5.77
2017-11-12T21:54:49.487Z,13.03
2017-11-12T21:57:17.800Z,4.60
2017-11-12T21:59:46.111Z,4.10
2017-11-12T22:02:14.427Z,4.93
2017-11-12T22:04:42.776Z,4.73
2017-11-12T22:07:11.082Z,4.60
2017-11-12T22:09:40.183Z,6.90
2017-11-12T22:12:09.254Z,5.03
2017-11-12T22:14:37.566Z,6.53
2017-11-12T22:17:06.652Z,6.97
2017-11-12T22:19:35.711Z,8.53
2017-11-12T22:22:04.020Z,8.77
2017-11-12T22:24:32.311Z,11.10
2017-11-12T22:27:01.390Z,9.63
2017-11-12T22:29:29.704Z,11.33
2017-11-12T22:31:58.011Z,10.43
2017-11-12T22:34:26.320Z,13.93
2017-11-12T22:36:55.398Z,11.20
2017-11-12T22:39:23.733Z,11.17
2017-11-12T22:41:52.164Z,9.83
2017-11-12T22:44:20.463Z,9.17
2017-11-12T22:46:49.542Z,11.20
2017-11-12T22:49:17.834Z,9.13
2017-11-12T22:51:46.910Z,13.53
2017-11-12T22:54:15.211Z,8.37
2017-11-12T22:56:44.283Z,8.80
2017-11-12T22:59:12.608Z,8.70
2017-11-12T23:01:40.920Z,7.60
2017-11-12T23:04:09.219Z,8.07
2017-11-12T23:06:37.526Z,7.40
2017-11-12T23:09:05.815Z,7.43
2017-11-12T23:11:34.133Z,8.07
2017-11-12T23:14:02.434Z,6.77
2017-11-12T23:16:30.753Z,7.90
2017-11-12T23:18:59.045Z,6.67
2017-11-12T23:21:27.352Z,6.60
2017-11-12T23:23:55.662Z,9.57
2017-11-12T23:26:23.980Z,9.60
2017-11-12T23:28:52.278Z,9.30
2017-11-12T23:31:20.582Z,8.40
2017-11-12T23:33:49.649Z,10.90
2017-11-12T23:36:17.965Z,11.70
2017-11-12T23:38:47.033Z,10.47
2017-11-12T23:41:15.342Z,11.03
2017-11-12T23:43:43.668Z,10.43
2017-11-12T23:46:11.977Z,10.30
2017-11-12T23:48:41.053Z,12.60
2017-11-12T23:51:09.380Z,13.03
2017-11-12T23:53:37.686Z,12.97
2017-11-12T23:56:06.017Z,12.83
2017-11-12T23:58:34.321Z,11.17
